Terminal Aerodrome Forecast
Issued by NWS Charleston, WV

Current Version | Previous Version | Graphics & Text | Print | Product List | Glossary On
Versions: 1 2 3 4 5 6 7 8 9 10 11 12 13 14 15 16 17 18 19 20 21 22 23 24 25
223
FTUS41 KRLX 022351
TAFBKW
TAF
KBKW 022351Z 0300/0324 VRB03KT P6SM SCT008 OVC050
     FM030500 00000KT 3SM -SHRA BR OVC008
     FM031000 29005KT 6SM BR OVC008
     FM031300 28006KT P6SM BKN008
     FM031800 28008KT P6SM BKN015=

USA.gov is the U.S. government's official web portal to all federal, state and local government web resources and services.